Time;durP1;ratioP1;P1;durP2;ratioP2;P2;SDS_P1;SDS_P2;PMS_P1;PMS_P2;Temp;Humidity;BMP_temperature;BMP_pressure;BME280_temperature;BME280_humidity;BME280_pressure;Samples;Min_cycle;Max_cycle;Signal;HPM_P1;HPM_P2
2023/05/19 00:02:08;;;;;;;13.10;6.47;;;;;;;13.48;53.85;101853.34;5023619;28;20049;-63
2023/05/19 00:04:39;;;;;;;18.58;6.55;;;;;;;13.13;54.85;101853.97;5023921;28;20049;-62
2023/05/19 00:07:10;;;;;;;20.88;7.50;;;;;;;12.82;56.17;101852.81;5014958;28;20054;-69
2023/05/19 00:09:37;;;;;;;19.35;6.75;;;;;;;12.85;56.32;101860.50;5012143;28;20457;-66
2023/05/19 00:12:05;;;;;;;14.43;7.78;;;;;;;12.87;56.70;101865.72;5021708;28;20626;-64
2023/05/19 00:14:32;;;;;;;16.80;8.25;;;;;;;12.80;57.20;101855.03;5022883;28;20056;-64
2023/05/19 00:17:02;;;;;;;17.30;7.60;;;;;;;12.82;57.45;101857.50;5018298;28;20050;-63
2023/05/19 00:19:31;;;;;;;14.45;8.07;;;;;;;12.64;58.40;101861.13;5022372;28;20041;-64
2023/05/19 00:21:58;;;;;;;21.88;8.70;;;;;;;12.40;59.65;101863.94;5005194;28;20045;-65
2023/05/19 00:24:26;;;;;;;17.13;7.78;;;;;;;12.40;60.00;101862.00;5019177;28;20751;-65
2023/05/19 00:26:53;;;;;;;15.60;7.47;;;;;;;12.89;59.43;101861.53;5022114;28;20057;-64
2023/05/19 00:29:21;;;;;;;15.38;7.88;;;;;;;13.10;58.96;101853.75;5001909;28;20509;-64
2023/05/19 00:31:48;;;;;;;21.38;8.40;;;;;;;12.73;59.29;101862.91;5011275;28;20094;-65
2023/05/19 00:34:15;;;;;;;21.85;8.77;;;;;;;12.59;60.41;101853.72;5028307;28;20057;-63
2023/05/19 00:36:43;;;;;;;21.33;8.60;;;;;;;12.30;62.01;101853.03;5027008;28;20053;-64
2023/05/19 00:39:13;;;;;;;18.08;8.82;;;;;;;12.53;61.46;101854.09;5003975;28;20045;-63
2023/05/19 00:41:41;;;;;;;18.42;8.85;;;;;;;12.20;62.79;101864.22;5016503;28;20046;-63
2023/05/19 00:44:08;;;;;;;23.45;9.98;;;;;;;12.00;64.15;101848.72;4987967;28;20446;-63
2023/05/19 00:46:36;;;;;;;21.23;9.02;;;;;;;12.11;64.02;101860.47;5022470;28;20046;-64
2023/05/19 00:49:04;;;;;;;16.38;8.63;;;;;;;12.49;63.38;101851.09;5011851;28;20050;-65
2023/05/19 00:51:31;;;;;;;20.58;9.18;;;;;;;12.61;62.12;101848.72;4998273;28;20064;-64
2023/05/19 00:53:59;;;;;;;17.45;8.77;;;;;;;12.41;63.09;101857.31;5022731;28;20060;-64
2023/05/19 00:56:26;;;;;;;18.42;8.43;;;;;;;12.86;63.15;101853.84;5012671;28;20045;-64
2023/05/19 00:58:53;;;;;;;15.55;8.80;;;;;;;13.03;61.36;101848.63;5024117;28;20088;-64
2023/05/19 01:01:22;;;;;;;20.73;9.25;;;;;;;12.61;62.77;101850.63;5022216;28;20046;-64
2023/05/19 01:03:50;;;;;;;23.17;9.25;;;;;;;12.26;63.96;101851.97;5018651;28;20053;-63
2023/05/19 01:06:20;;;;;;;21.88;10.02;;;;;;;12.42;64.27;101847.88;5011788;28;20046;-64
2023/05/19 01:08:50;;;;;;;22.52;9.95;;;;;;;12.13;64.86;101848.00;5012454;28;20425;-63
2023/05/19 01:11:17;;;;;;;20.07;9.10;;;;;;;12.36;65.68;101849.91;5022099;28;20053;-64
2023/05/19 01:13:45;;;;;;;19.60;8.95;;;;;;;12.66;63.64;101845.84;5017610;28;20413;-64
2023/05/19 01:16:15;;;;;;;23.08;9.80;;;;;;;12.00;65.81;101845.97;5018440;28;20054;-63
2023/05/19 01:18:48;;;;;;;18.63;9.70;;;;;;;11.82;66.89;101843.19;5018819;28;20428;-64
2023/05/19 01:21:22;;;;;;;20.13;9.73;;;;;;;12.38;67.24;101839.38;5009067;28;20528;-63
2023/05/19 01:24:13;;;;;;;20.63;9.50;;;;;;;13.01;64.04;101838.94;5018873;28;20710;-63
2023/05/19 01:27:22;;;;;;;25.27;10.65;;;;;;;12.38;65.51;101833.84;5023631;28;20054;-64
2023/05/19 01:30:26;;;;;;;19.50;10.40;;;;;;;12.09;67.21;101835.09;4968573;28;20065;-64
2023/05/19 01:32:58;;;;;;;24.60;10.25;;;;;;;12.00;67.46;101834.09;5022600;28;20076;-64
2023/05/19 01:35:26;;;;;;;18.63;10.63;;;;;;;12.38;66.55;101828.31;5012127;28;20050;-64
2023/05/19 01:37:56;;;;;;;25.83;11.70;;;;;;;11.72;68.51;101829.47;5019398;28;20058;-64
2023/05/19 01:40:24;;;;;;;26.52;11.77;;;;;;;11.55;70.02;101834.59;5006556;28;20716;-63
2023/05/19 01:42:53;;;;;;;24.02;11.23;;;;;;;11.59;70.08;101825.47;5019373;28;20057;-64
2023/05/19 01:45:27;;;;;;;24.95;11.60;;;;;;;11.16;71.65;101834.72;4984671;28;20050;-64
2023/05/19 01:47:57;;;;;;;23.35;11.07;;;;;;;11.13;72.38;101835.31;5024822;28;20049;-63
2023/05/19 01:50:24;;;;;;;;;;;;;;;11.03;72.63;101832.66;5015389;28;20048;-63
2023/05/19 01:52:51;;;;;;;28.38;12.52;;;;;;;10.74;74.45;101838.13;5021103;28;19932;-63
2023/05/19 01:55:21;;;;;;;25.80;12.43;;;;;;;10.82;75.02;101834.75;5021854;28;20053;-63
2023/05/19 01:58:22;;;;;;;28.98;13.57;;;;;;;10.79;75.30;101829.00;4988251;28;20061;-64
2023/05/19 02:00:58;;;;;;;23.73;12.23;;;;;;;10.80;74.98;101827.88;5024772;28;20077;-63
2023/05/19 02:04:07;;;;;;;22.73;12.48;;;;;;;10.97;74.32;101829.13;5024318;28;20502;-64
2023/05/19 02:06:49;;;;;;;23.48;12.02;;;;;;;10.88;74.94;101825.31;4962686;28;20061;-63
2023/05/19 02:09:40;;;;;;;27.08;11.50;;;;;;;10.83;75.05;101839.16;5023363;28;20065;-64
2023/05/19 02:12:15;;;;;;;31.08;13.23;;;;;;;10.91;73.67;101833.00;5014738;28;20041;-62
2023/05/19 02:14:53;;;;;;;25.05;11.93;;;;;;;11.39;72.22;101831.19;5021130;28;20046;-63
2023/05/19 02:17:22;;;;;;;24.00;11.73;;;;;;;11.68;72.53;101829.22;4995046;28;20049;-64
2023/05/19 02:19:50;;;;;;;25.15;12.55;;;;;;;11.20;73.41;101831.13;5030351;28;20089;-64
2023/05/19 02:22:17;;;;;;;24.02;11.95;;;;;;;11.13;72.62;101832.56;5007551;28;20054;-63
2023/05/19 02:24:50;;;;;;;25.75;12.90;;;;;;;11.17;72.11;101831.72;5004045;28;20413;-63
2023/05/19 02:27:17;;;;;;;24.60;12.00;;;;;;;11.46;71.67;101830.84;5016473;28;20125;-64
2023/05/19 02:29:45;;;;;;;26.88;12.23;;;;;;;11.44;71.35;101835.84;5024211;28;20045;-64
2023/05/19 02:32:13;;;;;;;28.58;12.48;;;;;;;11.62;70.46;101827.63;5006022;28;20054;-64
2023/05/19 02:34:44;;;;;;;27.73;12.55;;;;;;;11.23;71.80;101832.44;5019325;28;20492;-64
2023/05/19 02:37:13;;;;;;;30.27;12.45;;;;;;;11.29;71.37;101839.56;5004747;28;20052;-64
2023/05/19 02:39:41;;;;;;;30.02;13.32;;;;;;;11.09;72.50;101832.31;5008386;28;20053;-64
2023/05/19 02:42:08;;;;;;;31.25;13.05;;;;;;;11.15;72.91;101827.56;5025247;28;20141;-64
2023/05/19 02:44:36;;;;;;;28.15;13.75;;;;;;;10.94;73.08;101828.88;5001395;28;20092;-64
2023/05/19 02:47:03;;;;;;;21.08;12.30;;;;;;;10.95;73.46;101819.47;5010391;28;20430;-63
2023/05/19 02:49:34;;;;;;;27.33;13.20;;;;;;;10.55;75.37;101828.09;5017662;28;20080;-63
2023/05/19 02:52:03;;;;;;;27.92;12.57;;;;;;;10.73;75.42;101813.59;5022433;28;20056;-64
2023/05/19 02:54:31;;;;;;;27.48;12.60;;;;;;;10.69;74.97;101812.53;5028049;28;20038;-64
2023/05/19 02:56:59;;;;;;;36.33;13.57;;;;;;;10.47;75.90;101821.25;5019625;28;20255;-64
2023/05/19 02:59:27;;;;;;;24.92;13.15;;;;;;;10.54;76.39;101823.69;4982094;28;20069;-64
2023/05/19 03:01:56;;;;;;;25.13;13.40;;;;;;;10.42;76.81;101821.28;5009217;28;20056;-63
2023/05/19 03:04:23;;;;;;;29.50;13.50;;;;;;;10.69;76.47;101818.88;5010928;28;20806;-64
2023/05/19 03:06:51;;;;;;;29.15;14.23;;;;;;;10.68;75.86;101811.72;5009519;28;20049;-63
2023/05/19 03:09:18;;;;;;;30.33;13.98;;;;;;;10.41;77.26;101814.13;5027518;28;20363;-64
2023/05/19 03:11:46;;;;;;;31.23;13.68;;;;;;;10.57;76.41;101818.41;5029858;28;20049;-63
2023/05/19 03:14:13;;;;;;;24.48;14.27;;;;;;;10.43;76.79;101820.16;4998816;28;20689;-64
2023/05/19 03:16:41;;;;;;;28.73;13.07;;;;;;;10.65;76.70;101817.00;5013943;28;20077;-64
2023/05/19 03:19:09;;;;;;;25.23;13.27;;;;;;;10.83;76.47;101817.09;5003251;28;20061;-63
2023/05/19 03:21:36;;;;;;;30.90;14.68;;;;;;;10.72;75.96;101823.00;5029328;28;20060;-64
2023/05/19 03:24:04;;;;;;;24.60;13.50;;;;;;;10.77;76.11;101820.19;5030228;28;20404;-63
2023/05/19 03:26:32;;;;;;;30.05;14.98;;;;;;;10.32;77.88;101821.31;5017972;28;20052;-67
2023/05/19 03:29:00;;;;;;;29.52;14.63;;;;;;;10.43;78.49;101824.84;5002686;28;20555;-63
2023/05/19 03:31:29;;;;;;;29.83;15.55;;;;;;;10.13;79.37;101820.34;5014328;28;20045;-65
2023/05/19 03:33:58;;;;;;;30.45;15.57;;;;;;;10.14;79.76;101830.25;5000015;28;20069;-64
2023/05/19 03:36:30;;;;;;;27.70;14.48;;;;;;;10.31;79.66;101821.63;5006400;28;20451;-64
2023/05/19 03:38:59;;;;;;;30.65;14.05;;;;;;;10.63;78.59;101811.78;5006284;28;20056;-64
2023/05/19 03:41:26;;;;;;;30.85;14.70;;;;;;;10.55;77.77;101817.06;5000757;28;20041;-64
2023/05/19 03:43:55;;;;;;;31.75;15.15;;;;;;;10.15;79.66;101813.47;5030910;28;20056;-64
2023/05/19 03:46:22;;;;;;;29.95;15.38;;;;;;;10.20;80.76;101816.19;5023185;28;20049;-64
2023/05/19 03:49:01;;;;;;;34.97;15.10;;;;;;;10.06;80.18;101823.38;5024802;28;20046;-64
2023/05/19 03:51:58;;;;;;;31.80;15.35;;;;;;;9.92;81.43;101822.34;5018891;28;20084;-64
2023/05/19 03:54:45;;;;;;;31.65;16.08;;;;;;;10.13;81.26;101815.66;5020802;28;20058;-64
2023/05/19 03:57:13;;;;;;;32.55;15.75;;;;;;;10.04;80.79;101822.84;5024599;28;20561;-64
2023/05/19 03:59:40;;;;;;;30.58;14.45;;;;;;;10.18;81.60;101817.59;4996613;28;20056;-65
2023/05/19 04:02:08;;;;;;;30.73;15.32;;;;;;;10.22;79.71;101817.84;5007704;28;20421;-66
2023/05/19 04:04:36;;;;;;;27.00;15.98;;;;;;;10.08;80.28;101823.09;5026381;28;20492;-65
2023/05/19 04:07:04;;;;;;;29.70;16.63;;;;;;;10.18;80.42;101821.13;5004948;28;20049;-67
2023/05/19 04:09:33;;;;;;;30.52;15.77;;;;;;;10.07;80.48;101824.22;5025472;28;20050;-66
2023/05/19 04:12:04;;;;;;;31.83;15.77;;;;;;;9.81;81.67;101829.00;5018260;28;20054;-65
2023/05/19 04:14:31;;;;;;;35.88;17.30;;;;;;;10.23;83.20;101826.63;5027207;28;20052;-66
2023/05/19 04:16:59;;;;;;;28.63;15.38;;;;;;;10.30;80.08;101828.25;5001142;28;20053;-65
2023/05/19 04:19:27;;;;;;;29.50;15.98;;;;;;;10.14;80.28;101833.84;4992504;28;20041;-66
2023/05/19 04:21:55;;;;;;;30.23;16.42;;;;;;;10.18;80.04;101831.34;5028284;28;20053;-66
2023/05/19 04:24:23;;;;;;;35.03;16.92;;;;;;;9.97;80.65;101836.06;4999437;28;20050;-65
2023/05/19 04:26:52;;;;;;;33.13;16.25;;;;;;;10.12;80.57;101837.97;5000123;28;20453;-65
2023/05/19 04:29:19;;;;;;;31.65;16.60;;;;;;;9.74;82.43;101831.25;5002241;28;20045;-66
2023/05/19 04:31:47;;;;;;;28.83;16.35;;;;;;;10.11;82.51;101830.84;4988132;28;20054;-66
2023/05/19 04:34:18;;;;;;;33.42;16.90;;;;;;;10.57;79.74;101831.34;5005221;28;20178;-66
2023/05/19 04:36:46;;;;;;;28.27;15.90;;;;;;;10.28;79.25;101825.78;5010114;28;20056;-67
2023/05/19 04:39:16;;;;;;;33.92;17.08;;;;;;;10.30;79.28;101825.50;5025844;28;20049;-64
2023/05/19 04:41:45;;;;;;;31.93;16.13;;;;;;;10.54;78.33;101831.94;4995705;28;20054;-67
2023/05/19 04:44:16;;;;;;;30.20;16.52;;;;;;;10.39;78.81;101832.06;5007174;28;20046;-65
2023/05/19 04:46:46;;;;;;;34.55;17.20;;;;;;;10.60;78.15;101828.84;5025589;28;20057;-65
2023/05/19 04:49:13;;;;;;;35.67;17.15;;;;;;;10.39;78.23;101837.56;5016246;28;20080;-66
2023/05/19 04:51:41;;;;;;;36.75;17.85;;;;;;;10.29;78.54;101835.66;4975923;28;20053;-66
2023/05/19 04:54:09;;;;;;;30.20;15.93;;;;;;;10.37;80.41;101832.34;5003089;28;20045;-66
2023/05/19 04:56:36;;;;;;;35.72;18.35;;;;;;;10.36;77.88;101838.94;4995193;28;20048;-64
2023/05/19 04:59:05;;;;;;;37.60;17.60;;;;;;;9.84;80.41;101852.38;4995333;28;20042;-66
2023/05/19 05:01:33;;;;;;;30.38;17.25;;;;;;;9.79;81.66;101839.47;5017102;28;20045;-67
2023/05/19 05:04:01;;;;;;;37.10;17.55;;;;;;;9.76;81.59;101844.72;5006679;28;20408;-66
2023/05/19 05:06:30;;;;;;;37.45;16.33;;;;;;;10.10;81.23;101853.94;5016959;28;20390;-66
2023/05/19 05:09:02;;;;;;;36.15;17.58;;;;;;;10.46;80.08;101841.63;4988994;28;20464;-65
2023/05/19 05:11:31;;;;;;;30.77;17.15;;;;;;;10.31;78.58;101844.47;5005748;28;20046;-65
2023/05/19 05:14:00;;;;;;;29.00;17.83;;;;;;;10.27;78.82;101854.41;5004874;28;20045;-64
2023/05/19 05:16:29;;;;;;;34.23;17.07;;;;;;;10.37;79.96;101854.38;5017872;28;20068;-65
2023/05/19 05:18:58;;;;;;;33.25;17.02;;;;;;;10.23;79.46;101864.34;5010766;28;20049;-66
2023/05/19 05:21:27;;;;;;;38.13;18.80;;;;;;;9.98;80.17;101862.50;5021667;28;20061;-65
2023/05/19 05:23:54;;;;;;;29.13;16.95;;;;;;;10.22;79.20;101864.66;5008370;28;20528;-65
2023/05/19 05:26:27;;;;;;;;;;;;;;;10.09;81.97;101864.13;4988904;28;20060;-66
2023/05/19 05:28:55;;;;;;;33.70;17.27;;;;;;;9.92;80.46;101860.88;5000568;28;19928;-67
2023/05/19 05:31:22;;;;;;;34.38;17.73;;;;;;;10.07;80.19;101863.56;4998379;28;20054;-66
2023/05/19 05:33:50;;;;;;;33.28;17.13;;;;;;;9.83;81.04;101870.00;5015185;28;20517;-66
2023/05/19 05:36:21;;;;;;;36.78;18.23;;;;;;;10.03;80.34;101872.66;5008600;28;20053;-66
2023/05/19 05:38:48;;;;;;;29.52;16.75;;;;;;;9.98;80.41;101872.69;5000350;28;20050;-64
2023/05/19 05:41:16;;;;;;;32.17;17.25;;;;;;;10.00;80.20;101871.31;5012082;28;20049;-64
2023/05/19 05:43:45;;;;;;;31.27;17.85;;;;;;;10.12;80.67;101866.34;5014975;28;20050;-63
2023/05/19 05:46:12;;;;;;;29.95;17.55;;;;;;;10.18;80.44;101861.63;5026449;28;20076;-65
2023/05/19 05:48:41;;;;;;;32.58;18.90;;;;;;;10.28;78.89;101861.56;5006455;28;20058;-66
2023/05/19 05:51:09;;;;;;;35.33;18.70;;;;;;;9.92;79.61;101860.06;5019391;28;20061;-64
2023/05/19 05:53:42;;;;;;;32.40;17.58;;;;;;;10.03;80.12;101876.25;5005791;28;20050;-64
2023/05/19 05:56:10;;;;;;;34.78;17.25;;;;;;;9.90;80.63;101871.34;5011449;28;20061;-66
2023/05/19 05:58:44;;;;;;;34.65;18.45;;;;;;;10.10;80.11;101874.06;5004726;28;20042;-65
2023/05/19 06:01:11;;;;;;;34.35;17.83;;;;;;;9.99;79.91;101877.91;5002620;28;20057;-66
2023/05/19 06:03:41;;;;;;;35.60;17.85;;;;;;;10.23;79.81;101866.28;5019795;28;20045;-65
2023/05/19 06:06:10;;;;;;;39.00;17.95;;;;;;;10.26;78.91;101869.28;5013727;28;20053;-64
2023/05/19 06:08:39;;;;;;;32.83;18.02;;;;;;;10.29;78.63;101871.47;5028546;28;20057;-66
2023/05/19 06:11:08;;;;;;;38.58;19.20;;;;;;;10.42;78.24;101875.53;5028477;28;20425;-65
2023/05/19 06:13:38;;;;;;;30.48;17.92;;;;;;;10.42;78.53;101881.88;4990446;28;20050;-65
2023/05/19 06:16:07;;;;;;;31.35;17.23;;;;;;;10.65;77.50;101881.16;5009114;28;20049;-65
2023/05/19 06:18:39;;;;;;;38.33;18.27;;;;;;;10.79;76.74;101875.84;5029830;28;20057;-65
2023/05/19 06:21:09;;;;;;;28.88;16.90;;;;;;;10.75;76.00;101883.88;5028031;28;20053;-65
2023/05/19 06:23:36;;;;;;;35.92;17.42;;;;;;;10.52;77.07;101889.25;5029898;28;20050;-64
2023/05/19 06:26:06;;;;;;;33.53;18.67;;;;;;;10.45;77.96;101877.72;5028439;28;20069;-65
2023/05/19 06:28:33;;;;;;;32.20;17.58;;;;;;;10.56;77.08;101874.63;5010847;28;20083;-65
2023/05/19 06:31:01;;;;;;;33.25;15.77;;;;;;;10.95;74.09;101880.13;5013193;28;20516;-64
2023/05/19 06:33:43;;;;;;;25.55;14.50;;;;;;;11.17;70.77;101873.06;5023965;28;20048;-65
2023/05/19 06:36:10;;;;;;;27.92;13.98;;;;;;;11.34;69.10;101870.69;5027020;28;20551;-64
2023/05/19 06:38:41;;;;;;;36.22;15.13;;;;;;;11.50;68.07;101863.09;5027060;28;20061;-65
2023/05/19 06:41:08;;;;;;;29.48;14.63;;;;;;;11.63;67.33;101865.16;4996652;28;20057;-64
2023/05/19 06:43:36;;;;;;;31.20;14.52;;;;;;;11.73;66.96;101867.84;5004333;28;20501;-63
2023/05/19 06:46:04;;;;;;;23.33;15.15;;;;;;;12.17;67.85;101867.56;5013928;28;20046;-65
2023/05/19 06:48:32;;;;;;;29.15;15.18;;;;;;;12.07;69.67;101864.94;4999741;28;20069;-64
2023/05/19 06:51:00;;;;;;;24.48;13.07;;;;;;;12.42;66.75;101867.22;4995219;28;20050;-64
2023/05/19 06:53:27;;;;;;;26.88;13.40;;;;;;;12.70;63.96;101860.75;4992851;28;20435;-65
2023/05/19 06:55:55;;;;;;;26.92;13.48;;;;;;;12.49;63.82;101867.69;5001493;28;20049;-63
2023/05/19 06:58:29;;;;;;;28.55;13.23;;;;;;;12.76;63.62;101862.28;4998962;28;20477;-64
2023/05/19 07:00:58;;;;;;;24.08;12.77;;;;;;;12.51;63.02;101861.84;4997127;28;20054;-62
2023/05/19 07:03:30;;;;;;;29.80;13.15;;;;;;;12.01;64.06;101861.41;5012299;28;20505;-63
2023/05/19 07:05:59;;;;;;;36.67;14.43;;;;;;;11.95;65.03;101857.09;4999839;28;20057;-65
2023/05/19 07:08:27;;;;;;;31.20;14.70;;;;;;;12.06;64.69;101855.03;5001009;28;20061;-65
2023/05/19 07:10:56;;;;;;;29.92;13.40;;;;;;;12.03;64.96;101861.13;4996894;28;20057;-66
2023/05/19 07:13:24;;;;;;;21.30;12.75;;;;;;;11.84;65.20;101861.06;5009983;28;20652;-64
2023/05/19 07:15:55;;;;;;;27.02;12.95;;;;;;;12.01;64.92;101857.84;5000464;28;20064;-65
2023/05/19 07:18:24;;;;;;;32.10;13.38;;;;;;;12.54;63.52;101869.53;5023037;28;20060;-65
2023/05/19 07:20:54;;;;;;;25.17;12.88;;;;;;;12.61;62.92;101867.22;5013215;28;20041;-66
2023/05/19 07:23:22;;;;;;;25.65;12.82;;;;;;;12.49;63.96;101862.16;5007787;28;20053;-67
2023/05/19 07:25:53;;;;;;;31.27;14.23;;;;;;;12.73;62.65;101854.59;5014243;28;20545;-68
2023/05/19 07:28:21;;;;;;;25.70;13.10;;;;;;;12.88;61.32;101859.06;5015613;28;20661;-65
2023/05/19 07:30:48;;;;;;;29.95;11.27;;;;;;;13.61;60.98;101860.03;5023223;28;20050;-67
2023/05/19 07:33:16;;;;;;;23.17;11.38;;;;;;;14.21;57.89;101846.91;5013369;28;20045;-65
2023/05/19 07:35:44;;;;;;;26.80;13.48;;;;;;;14.05;57.14;101845.56;5013644;28;20077;-64
2023/05/19 07:38:11;;;;;;;31.63;12.68;;;;;;;14.41;56.42;101840.91;5013216;28;20041;-65
2023/05/19 07:40:39;;;;;;;24.15;12.10;;;;;;;13.52;57.92;101853.56;5013072;28;20049;-65
2023/05/19 07:43:07;;;;;;;24.05;11.90;;;;;;;13.65;57.94;101847.19;4996559;28;20058;-66
2023/05/19 07:45:34;;;;;;;19.77;11.73;;;;;;;13.77;57.95;101847.53;4995238;28;20064;-64
2023/05/19 07:48:01;;;;;;;25.30;12.07;;;;;;;14.27;56.18;101845.66;5009849;28;20050;-65
2023/05/19 07:50:29;;;;;;;26.10;11.98;;;;;;;14.75;55.00;101837.63;5012655;28;20049;-67
2023/05/19 07:52:56;;;;;;;23.20;10.82;;;;;;;15.39;54.52;101828.75;5009551;28;20047;-64
2023/05/19 07:55:23;;;;;;;21.83;11.50;;;;;;;15.08;54.03;101833.47;5008427;28;20061;-64
2023/05/19 07:57:51;;;;;;;27.95;11.88;;;;;;;14.72;53.79;101827.16;4995892;28;20446;-63
2023/05/19 08:00:19;;;;;;;22.70;10.93;;;;;;;15.51;53.08;101829.84;5026915;28;20046;-64
2023/05/19 08:02:46;;;;;;;22.50;11.00;;;;;;;15.08;53.08;101828.72;4998864;28;20069;-65
2023/05/19 08:05:14;;;;;;;33.90;11.30;;;;;;;14.68;54.38;101828.94;5013251;28;20050;-64
2023/05/19 08:07:41;;;;;;;24.92;10.85;;;;;;;14.72;53.96;101827.97;5013476;28;20046;-65
2023/05/19 08:10:09;;;;;;;24.65;11.25;;;;;;;14.08;55.50;101831.09;5012345;28;20049;-65
2023/05/19 08:12:36;;;;;;;24.55;11.57;;;;;;;14.31;55.21;101824.53;5010238;28;20738;-66
2023/05/19 08:15:04;;;;;;;28.35;11.52;;;;;;;14.60;55.07;101819.41;5013029;28;20054;-65
2023/05/19 08:17:32;;;;;;;26.25;11.00;;;;;;;14.91;54.45;101828.63;4991924;28;20042;-65
2023/05/19 08:19:59;;;;;;;28.60;11.57;;;;;;;14.63;55.00;101822.38;5009193;28;20505;-66
2023/05/19 08:22:26;;;;;;;29.38;11.57;;;;;;;15.00;54.03;101825.91;5012164;28;20046;-65
2023/05/19 08:24:54;;;;;;;34.30;11.35;;;;;;;15.03;53.67;101825.28;5012298;28;20056;-66
2023/05/19 08:27:21;;;;;;;25.95;11.05;;;;;;;14.72;54.11;101818.81;5013275;28;20709;-66
2023/05/19 08:29:49;;;;;;;25.20;11.98;;;;;;;14.38;55.49;101816.59;4999674;28;20498;-64
2023/05/19 08:32:16;;;;;;;23.55;11.48;;;;;;;14.71;55.10;101811.66;5005528;28;20061;-64
2023/05/19 08:34:44;;;;;;;17.73;10.18;;;;;;;14.66;53.91;101815.38;4994486;28;20046;-65
2023/05/19 08:37:11;;;;;;;28.88;10.18;;;;;;;14.94;53.73;101811.31;4994604;28;20048;-64
2023/05/19 08:39:39;;;;;;;25.88;10.38;;;;;;;15.52;53.63;101814.81;5022265;28;20436;-64
2023/05/19 08:42:08;;;;;;;25.23;11.30;;;;;;;15.03;54.02;101808.63;5021868;28;20041;-65
2023/05/19 08:44:36;;;;;;;21.42;10.80;;;;;;;14.91;53.97;101803.66;5012261;28;20057;-64
2023/05/19 08:47:05;;;;;;;25.33;10.35;;;;;;;14.76;54.71;101806.81;4995740;28;20540;-64
2023/05/19 08:49:36;;;;;;;23.67;10.30;;;;;;;15.18;53.67;101797.97;4991263;28;20057;-64
2023/05/19 08:52:52;;;;;;;20.60;10.05;;;;;;;15.01;53.95;101800.59;4994853;28;20141;-64
2023/05/19 08:55:32;;;;;;;20.65;10.38;;;;;;;14.93;54.57;101793.06;4962660;28;20061;-64
2023/05/19 08:58:02;;;;;;;28.15;10.02;;;;;;;15.39;53.38;101787.94;5013585;28;20046;-65
2023/05/19 09:00:30;;;;;;;24.43;9.73;;;;;;;15.53;52.55;101791.44;5024879;28;20034;-64
2023/05/19 09:02:59;;;;;;;22.20;9.02;;;;;;;15.70;52.37;101791.53;4977217;28;20057;-65
2023/05/19 09:05:45;;;;;;;24.23;9.45;;;;;;;15.82;51.54;101790.91;5012230;28;20065;-64
2023/05/19 09:08:13;;;;;;;23.88;10.00;;;;;;;15.03;53.33;101787.22;5013413;28;20057;-65
2023/05/19 09:10:40;;;;;;;22.05;9.95;;;;;;;15.04;53.85;101788.88;5025405;28;20049;-64
2023/05/19 09:13:08;;;;;;;19.38;8.65;;;;;;;15.13;53.04;101781.41;5012307;28;20053;-64
2023/05/19 09:15:37;;;;;;;20.30;9.45;;;;;;;15.24;53.25;101781.97;5019371;28;20053;-64
2023/05/19 09:18:12;;;;;;;18.98;9.23;;;;;;;15.28;52.27;101769.91;5023321;28;20049;-64
2023/05/19 09:20:42;;;;;;;25.42;8.50;;;;;;;15.22;51.77;101776.72;4995560;28;20065;-64
2023/05/19 09:23:14;;;;;;;16.75;8.75;;;;;;;15.21;52.29;101775.09;4991894;28;20061;-64
2023/05/19 09:25:47;;;;;;;25.05;8.90;;;;;;;15.44;51.56;101781.44;5011733;28;20737;-64
2023/05/19 09:28:25;;;;;;;18.30;8.82;;;;;;;15.51;51.39;101759.59;4999111;28;20042;-63
2023/05/19 09:31:02;;;;;;;18.67;9.23;;;;;;;15.39;51.46;101765.72;5014796;28;20050;-65
2023/05/19 09:33:32;;;;;;;22.58;8.70;;;;;;;15.66;51.77;101764.69;5008370;28;20050;-63
2023/05/19 09:36:00;;;;;;;24.27;9.55;;;;;;;15.56;51.60;101751.94;5015449;28;20057;-63
2023/05/19 09:38:28;;;;;;;47.90;9.82;;;;;;;15.91;50.36;101755.63;5026026;28;20057;-65
2023/05/19 09:40:57;;;;;;;24.48;8.45;;;;;;;15.98;50.25;101755.13;5015501;28;20049;-66
2023/05/19 09:43:29;;;;;;;21.38;7.95;;;;;;;16.07;50.14;101754.03;5023455;28;20037;-65
2023/05/19 09:46:03;;;;;;;18.88;7.35;;;;;;;16.10;49.69;101758.94;4998186;28;20049;-63
2023/05/19 09:48:31;;;;;;;25.73;7.18;;;;;;;16.11;49.87;101751.41;5015207;28;20056;-64
2023/05/19 09:51:04;;;;;;;19.63;7.68;;;;;;;16.16;49.45;101752.03;5016153;28;20053;-64
2023/05/19 09:53:31;;;;;;;19.67;6.97;;;;;;;16.43;49.66;101759.25;5021442;28;20099;-63
2023/05/19 09:56:00;;;;;;;20.60;6.85;;;;;;;16.44;48.79;101747.81;5012227;28;20611;-63
2023/05/19 09:58:35;;;;;;;23.30;7.17;;;;;;;16.72;48.90;101745.53;5017735;28;20056;-65
2023/05/19 10:01:03;;;;;;;14.07;6.70;;;;;;;16.54;47.79;101755.03;5022259;28;20477;-63
2023/05/19 10:03:32;;;;;;;16.38;7.45;;;;;;;16.42;48.52;101749.28;5026924;28;20049;-65
2023/05/19 10:06:00;;;;;;;15.40;7.22;;;;;;;16.30;49.19;101755.50;5026721;28;20041;-64
2023/05/19 10:08:29;;;;;;;18.77;7.45;;;;;;;16.12;49.44;101758.59;5019188;28;20058;-64
2023/05/19 10:10:57;;;;;;;16.27;6.93;;;;;;;16.14;49.00;101753.53;5019824;28;20080;-63
2023/05/19 10:13:24;;;;;;;23.75;6.60;;;;;;;16.47;48.52;101738.03;5008058;28;20304;-64
2023/05/19 10:15:53;;;;;;;18.70;6.07;;;;;;;16.45;47.23;101743.06;5005021;28;20049;-65
2023/05/19 10:18:28;;;;;;;19.15;5.80;;;;;;;16.49;47.41;101742.09;4995576;28;20042;-63
2023/05/19 10:20:56;;;;;;;16.55;5.93;;;;;;;16.60;46.85;101734.25;5009225;28;20038;-63
2023/05/19 10:23:24;;;;;;;21.48;7.15;;;;;;;16.76;47.07;101732.59;4996105;28;20685;-63
2023/05/19 10:25:56;;;;;;;17.70;6.45;;;;;;;16.68;46.57;101739.78;5010927;28;20069;-64
2023/05/19 10:28:26;;;;;;;16.35;5.68;;;;;;;16.66;46.98;101732.94;5017209;28;20073;-64
2023/05/19 10:30:57;;;;;;;14.75;5.20;;;;;;;16.78;44.58;101739.47;5026457;28;20049;-65
2023/05/19 10:33:36;;;;;;;15.07;5.07;;;;;;;16.78;45.01;101733.09;5025698;28;20068;-64
2023/05/19 10:36:43;;;;;;;17.27;4.90;;;;;;;17.00;44.66;101730.06;4997033;28;20061;-64
2023/05/19 10:39:24;;;;;;;14.57;4.90;;;;;;;17.01;44.49;101731.72;4991565;28;20410;-64
2023/05/19 10:42:12;;;;;;;16.17;5.78;;;;;;;17.15;44.17;101737.06;5009820;28;20049;-64
2023/05/19 10:45:03;;;;;;;14.70;5.25;;;;;;;17.27;44.15;101726.88;5023068;28;20073;-64
2023/05/19 10:47:32;;;;;;;16.98;5.00;;;;;;;17.01;44.59;101730.91;5000752;28;20433;-64
2023/05/19 10:50:00;;;;;;;15.98;5.00;;;;;;;17.01;45.29;101736.47;5013570;28;20053;-64
2023/05/19 10:52:29;;;;;;;19.10;5.15;;;;;;;17.13;45.02;101731.84;5016487;28;20082;-64
2023/05/19 10:54:57;;;;;;;18.70;4.55;;;;;;;17.41;43.76;101730.25;5012798;28;20053;-65
2023/05/19 10:57:26;;;;;;;16.02;4.80;;;;;;;17.50;43.59;101721.91;5008420;28;20149;-64
2023/05/19 11:00:07;;;;;;;18.23;5.45;;;;;;;17.47;42.79;101728.94;5020742;28;20054;-63
2023/05/19 11:02:42;;;;;;;17.42;4.75;;;;;;;17.41;43.12;101724.69;5016913;28;20041;-64
2023/05/19 11:05:13;;;;;;;13.13;4.47;;;;;;;17.57;42.71;101700.69;5021372;28;20050;-64
2023/05/19 11:07:56;;;;;;;13.10;5.10;;;;;;;17.72;43.25;101702.09;4979399;28;1159430;-63
2023/05/19 11:10:24;;;;;;;13.90;4.93;;;;;;;17.92;42.95;101707.69;4992748;28;20054;-63
2023/05/19 11:12:51;;;;;;;15.88;5.28;;;;;;;17.87;43.20;101707.88;5008609;28;20046;-64
2023/05/19 11:15:24;;;;;;;16.73;5.10;;;;;;;17.80;42.88;101704.03;5014549;28;20057;-64
2023/05/19 11:17:52;;;;;;;12.60;4.90;;;;;;;17.93;42.33;101708.50;5019697;28;20464;-64
2023/05/19 11:20:21;;;;;;;13.38;5.22;;;;;;;18.01;42.97;101698.47;5026352;28;20154;-63
2023/05/19 11:23:08;;;;;;;15.82;5.35;;;;;;;17.85;42.99;101696.25;5005592;28;20053;-64
2023/05/19 11:25:46;;;;;;;16.85;5.40;;;;;;;17.68;43.55;101692.75;5024573;28;20049;-64
2023/05/19 11:28:17;;;;;;;13.88;5.68;;;;;;;17.60;43.51;101688.91;5014395;28;20050;-64